sensor_id;sensor_type;location;lat;lon;timestamp;temperature;humidity
50556;DHT22;36508;52.512;13.450;2022-09-21T00:00:46;10.00;99.90
50556;DHT22;36508;52.512;13.450;2022-09-21T00:03:13;10.10;99.90
50556;DHT22;36508;52.512;13.450;2022-09-21T00:05:39;10.10;99.90
50556;DHT22;36508;52.512;13.450;2022-09-21T00:08:06;10.20;99.90
50556;DHT22;36508;52.512;13.450;2022-09-21T00:10:32;10.10;99.90
50556;DHT22;36508;52.512;13.450;2022-09-21T00:12:58;10.10;99.90
50556;DHT22;36508;52.512;13.450;2022-09-21T00:15:27;10.10;99.90
50556;DHT22;36508;52.512;13.450;2022-09-21T00:17:54;10.10;99.90
50556;DHT22;36508;52.512;13.450;2022-09-21T00:20:20;10.10;99.90
50556;DHT22;36508;52.512;13.450;2022-09-21T00:22:47;10.10;99.90
50556;DHT22;36508;52.512;13.450;2022-09-21T00:25:16;10.20;99.90
50556;DHT22;36508;52.512;13.450;2022-09-21T00:27:42;10.10;99.90
50556;DHT22;36508;52.512;13.450;2022-09-21T00:30:08;10.10;99.90
50556;DHT22;36508;52.512;13.450;2022-09-21T00:32:35;10.10;99.90
50556;DHT22;36508;52.512;13.450;2022-09-21T00:35:02;10.10;99.90
50556;DHT22;36508;52.512;13.450;2022-09-21T00:37:28;10.10;99.90
50556;DHT22;36508;52.512;13.450;2022-09-21T00:39:54;10.10;99.90
50556;DHT22;36508;52.512;13.450;2022-09-21T00:42:27;10.10;99.90
50556;DHT22;36508;52.512;13.450;2022-09-21T00:44:53;10.10;99.90
50556;DHT22;36508;52.512;13.450;2022-09-21T00:47:22;10.00;99.90
50556;DHT22;36508;52.512;13.450;2022-09-21T00:49:53;9.90;99.90
50556;DHT22;36508;52.512;13.450;2022-09-21T00:52:22;9.90;99.90
50556;DHT22;36508;52.512;13.450;2022-09-21T00:54:57;9.90;99.90
50556;DHT22;36508;52.512;13.450;2022-09-21T00:57:26;10.00;99.90
50556;DHT22;36508;52.512;13.450;2022-09-21T00:59:54;9.90;99.90
50556;DHT22;36508;52.512;13.450;2022-09-21T01:02:22;9.90;99.90
50556;DHT22;36508;52.512;13.450;2022-09-21T01:04:48;9.90;99.90
50556;DHT22;36508;52.512;13.450;2022-09-21T01:07:21;9.80;99.90
50556;DHT22;36508;52.512;13.450;2022-09-21T01:09:52;9.70;99.90
50556;DHT22;36508;52.512;13.450;2022-09-21T01:12:45;9.80;99.90
50556;DHT22;36508;52.512;13.450;2022-09-21T01:29:49;9.80;99.90
50556;DHT22;36508;52.512;13.450;2022-09-21T01:32:32;9.80;99.90
50556;DHT22;36508;52.512;13.450;2022-09-21T01:37:46;9.80;99.90
50556;DHT22;36508;52.512;13.450;2022-09-21T01:40:20;9.80;99.90
50556;DHT22;36508;52.512;13.450;2022-09-21T01:42:48;9.90;99.90
50556;DHT22;36508;52.512;13.450;2022-09-21T01:45:16;9.90;99.90
50556;DHT22;36508;52.512;13.450;2022-09-21T01:47:45;9.80;99.90
50556;DHT22;36508;52.512;13.450;2022-09-21T01:50:16;9.70;99.90
50556;DHT22;36508;52.512;13.450;2022-09-21T01:52:48;9.70;99.90
50556;DHT22;36508;52.512;13.450;2022-09-21T01:55:19;9.70;99.90
50556;DHT22;36508;52.512;13.450;2022-09-21T01:58:06;9.80;99.90
50556;DHT22;36508;52.512;13.450;2022-09-21T02:00:35;9.80;99.90
50556;DHT22;36508;52.512;13.450;2022-09-21T02:03:12;9.80;99.90
50556;DHT22;36508;52.512;13.450;2022-09-21T02:05:39;9.70;99.90
50556;DHT22;36508;52.512;13.450;2022-09-21T02:08:06;9.70;99.90
50556;DHT22;36508;52.512;13.450;2022-09-21T02:10:37;9.60;99.90
50556;DHT22;36508;52.512;13.450;2022-09-21T02:13:05;9.70;99.90
50556;DHT22;36508;52.512;13.450;2022-09-21T02:15:58;9.60;99.90
50556;DHT22;36508;52.512;13.450;2022-09-21T02:18:42;9.70;99.90
50556;DHT22;36508;52.512;13.450;2022-09-21T02:21:26;9.70;99.90
50556;DHT22;36508;52.512;13.450;2022-09-21T02:24:04;9.70;99.90
50556;DHT22;36508;52.512;13.450;2022-09-21T02:29:40;9.60;99.90
50556;DHT22;36508;52.512;13.450;2022-09-21T02:32:30;9.40;99.90
50556;DHT22;36508;52.512;13.450;2022-09-21T02:37:43;9.50;99.90
50556;DHT22;36508;52.512;13.450;2022-09-21T02:42:43;9.40;99.90
50556;DHT22;36508;52.512;13.450;2022-09-21T02:45:16;9.40;99.90
50556;DHT22;36508;52.512;13.450;2022-09-21T02:47:56;9.30;99.90
50556;DHT22;36508;52.512;13.450;2022-09-21T02:50:28;9.40;99.90
50556;DHT22;36508;52.512;13.450;2022-09-21T02:53:00;9.30;99.90
50556;DHT22;36508;52.512;13.450;2022-09-21T02:55:26;9.30;99.90
50556;DHT22;36508;52.512;13.450;2022-09-21T02:57:54;9.40;99.90
50556;DHT22;36508;52.512;13.450;2022-09-21T03:00:20;9.40;99.90
50556;DHT22;36508;52.512;13.450;2022-09-21T03:02:45;9.50;99.90
50556;DHT22;36508;52.512;13.450;2022-09-21T03:05:12;9.40;99.90
50556;DHT22;36508;52.512;13.450;2022-09-21T03:07:39;9.40;99.90
50556;DHT22;36508;52.512;13.450;2022-09-21T03:10:05;9.50;99.90
50556;DHT22;36508;52.512;13.450;2022-09-21T03:12:32;9.40;99.90
50556;DHT22;36508;52.512;13.450;2022-09-21T03:14:58;9.40;99.90
50556;DHT22;36508;52.512;13.450;2022-09-21T03:17:26;9.40;99.90
50556;DHT22;36508;52.512;13.450;2022-09-21T03:19:52;9.40;99.90
50556;DHT22;36508;52.512;13.450;2022-09-21T03:22:20;9.40;99.90
50556;DHT22;36508;52.512;13.450;2022-09-21T03:24:45;9.30;99.90
50556;DHT22;36508;52.512;13.450;2022-09-21T03:27:16;9.30;99.90
50556;DHT22;36508;52.512;13.450;2022-09-21T03:29:44;9.40;99.90
50556;DHT22;36508;52.512;13.450;2022-09-21T03:32:09;9.40;99.90
50556;DHT22;36508;52.512;13.450;2022-09-21T03:34:35;9.50;99.90
50556;DHT22;36508;52.512;13.450;2022-09-21T03:37:02;9.50;99.90
50556;DHT22;36508;52.512;13.450;2022-09-21T03:39:29;9.50;99.90
50556;DHT22;36508;52.512;13.450;2022-09-21T03:41:55;9.50;99.90
50556;DHT22;36508;52.512;13.450;2022-09-21T03:44:22;9.60;99.90
50556;DHT22;36508;52.512;13.450;2022-09-21T03:46:48;9.60;99.90
50556;DHT22;36508;52.512;13.450;2022-09-21T03:49:15;9.60;99.90
50556;DHT22;36508;52.512;13.450;2022-09-21T03:51:40;9.60;99.90
50556;DHT22;36508;52.512;13.450;2022-09-21T03:54:06;9.40;99.90
50556;DHT22;36508;52.512;13.450;2022-09-21T03:56:31;9.30;99.90
50556;DHT22;36508;52.512;13.450;2022-09-21T03:58:57;9.30;99.90
50556;DHT22;36508;52.512;13.450;2022-09-21T04:01:22;9.30;99.90
50556;DHT22;36508;52.512;13.450;2022-09-21T04:03:48;9.40;99.90
50556;DHT22;36508;52.512;13.450;2022-09-21T04:06:13;9.40;99.90
50556;DHT22;36508;52.512;13.450;2022-09-21T04:08:39;9.40;99.90
50556;DHT22;36508;52.512;13.450;2022-09-21T04:11:13;9.50;99.90
50556;DHT22;36508;52.512;13.450;2022-09-21T04:13:39;9.60;99.90
50556;DHT22;36508;52.512;13.450;2022-09-21T04:16:08;9.60;99.90
50556;DHT22;36508;52.512;13.450;2022-09-21T04:18:34;9.40;99.90
50556;DHT22;36508;52.512;13.450;2022-09-21T04:21:00;9.40;99.90
50556;DHT22;36508;52.512;13.450;2022-09-21T04:23:25;9.40;99.90
50556;DHT22;36508;52.512;13.450;2022-09-21T04:25:53;9.40;99.90
50556;DHT22;36508;52.512;13.450;2022-09-21T04:28:19;9.40;99.90
50556;DHT22;36508;52.512;13.450;2022-09-21T04:30:45;9.40;99.90
50556;DHT22;36508;52.512;13.450;2022-09-21T04:33:11;9.30;99.90
50556;DHT22;36508;52.512;13.450;2022-09-21T04:35:36;9.20;99.90
50556;DHT22;36508;52.512;13.450;2022-09-21T04:38:02;9.20;99.90
50556;DHT22;36508;52.512;13.450;2022-09-21T04:40:27;9.20;99.90
50556;DHT22;36508;52.512;13.450;2022-09-21T04:42:54;9.30;99.90
50556;DHT22;36508;52.512;13.450;2022-09-21T04:45:20;9.40;99.90
50556;DHT22;36508;52.512;13.450;2022-09-21T04:47:46;9.30;99.90
50556;DHT22;36508;52.512;13.450;2022-09-21T04:50:11;9.20;99.90
50556;DHT22;36508;52.512;13.450;2022-09-21T04:52:38;9.20;99.90
50556;DHT22;36508;52.512;13.450;2022-09-21T04:55:04;9.10;99.90
50556;DHT22;36508;52.512;13.450;2022-09-21T04:57:30;9.10;99.90
50556;DHT22;36508;52.512;13.450;2022-09-21T04:59:56;9.10;99.90
50556;DHT22;36508;52.512;13.450;2022-09-21T05:02:21;9.20;99.90
50556;DHT22;36508;52.512;13.450;2022-09-21T05:04:47;9.20;99.90
50556;DHT22;36508;52.512;13.450;2022-09-21T05:07:12;9.10;99.90
50556;DHT22;36508;52.512;13.450;2022-09-21T05:09:38;9.20;99.90
50556;DHT22;36508;52.512;13.450;2022-09-21T05:12:22;9.10;99.90
50556;DHT22;36508;52.512;13.450;2022-09-21T05:14:47;9.20;99.90
50556;DHT22;36508;52.512;13.450;2022-09-21T05:17:13;9.20;99.90
50556;DHT22;36508;52.512;13.450;2022-09-21T05:19:39;9.30;99.90
50556;DHT22;36508;52.512;13.450;2022-09-21T05:22:04;9.30;99.90
50556;DHT22;36508;52.512;13.450;2022-09-21T05:24:30;9.20;99.90
50556;DHT22;36508;52.512;13.450;2022-09-21T05:26:56;9.20;99.90
50556;DHT22;36508;52.512;13.450;2022-09-21T05:29:21;9.20;99.90
50556;DHT22;36508;52.512;13.450;2022-09-21T05:31:54;9.30;99.90
50556;DHT22;36508;52.512;13.450;2022-09-21T05:37:49;9.30;99.90
50556;DHT22;36508;52.512;13.450;2022-09-21T05:40:13;9.40;99.90
50556;DHT22;36508;52.512;13.450;2022-09-21T05:42:39;9.30;99.90
50556;DHT22;36508;52.512;13.450;2022-09-21T05:45:16;9.50;99.90
50556;DHT22;36508;52.512;13.450;2022-09-21T05:55:56;9.60;99.90
50556;DHT22;36508;52.512;13.450;2022-09-21T06:03:41;9.70;99.90
50556;DHT22;36508;52.512;13.450;2022-09-21T06:06:07;9.80;99.90
50556;DHT22;36508;52.512;13.450;2022-09-21T06:08:34;9.90;99.90
50556;DHT22;36508;52.512;13.450;2022-09-21T06:11:00;9.90;99.90
50556;DHT22;36508;52.512;13.450;2022-09-21T06:13:25;10.00;99.90
50556;DHT22;36508;52.512;13.450;2022-09-21T06:15:51;10.10;99.90
50556;DHT22;36508;52.512;13.450;2022-09-21T06:18:18;10.10;99.90
50556;DHT22;36508;52.512;13.450;2022-09-21T06:20:43;10.10;99.90
50556;DHT22;36508;52.512;13.450;2022-09-21T06:23:11;10.20;99.90
50556;DHT22;36508;52.512;13.450;2022-09-21T06:25:36;10.30;99.90
50556;DHT22;36508;52.512;13.450;2022-09-21T06:28:11;10.30;99.90
50556;DHT22;36508;52.512;13.450;2022-09-21T06:30:38;10.40;99.90
50556;DHT22;36508;52.512;13.450;2022-09-21T06:33:06;10.60;99.90
50556;DHT22;36508;52.512;13.450;2022-09-21T06:35:33;10.60;99.90
50556;DHT22;36508;52.512;13.450;2022-09-21T06:38:04;10.80;99.90
50556;DHT22;36508;52.512;13.450;2022-09-21T06:40:32;10.90;99.90
50556;DHT22;36508;52.512;13.450;2022-09-21T06:43:00;10.70;99.90
50556;DHT22;36508;52.512;13.450;2022-09-21T06:45:27;10.80;99.90
50556;DHT22;36508;52.512;13.450;2022-09-21T06:47:53;11.10;99.90
50556;DHT22;36508;52.512;13.450;2022-09-21T06:50:19;11.10;99.90
50556;DHT22;36508;52.512;13.450;2022-09-21T06:52:45;10.90;99.90
50556;DHT22;36508;52.512;13.450;2022-09-21T06:55:12;11.00;99.90
50556;DHT22;36508;52.512;13.450;2022-09-21T06:57:43;11.00;99.90
50556;DHT22;36508;52.512;13.450;2022-09-21T07:00:13;10.90;99.90
50556;DHT22;36508;52.512;13.450;2022-09-21T07:02:44;10.90;99.90
50556;DHT22;36508;52.512;13.450;2022-09-21T07:05:10;10.90;99.90
50556;DHT22;36508;52.512;13.450;2022-09-21T07:07:36;10.90;99.90
50556;DHT22;36508;52.512;13.450;2022-09-21T07:10:02;11.00;99.90
50556;DHT22;36508;52.512;13.450;2022-09-21T07:12:28;11.10;99.90
50556;DHT22;36508;52.512;13.450;2022-09-21T07:14:54;11.30;99.90
50556;DHT22;36508;52.512;13.450;2022-09-21T07:17:19;11.50;99.90
50556;DHT22;36508;52.512;13.450;2022-09-21T07:19:46;11.70;99.90
50556;DHT22;36508;52.512;13.450;2022-09-21T07:22:11;11.70;99.90
50556;DHT22;36508;52.512;13.450;2022-09-21T07:24:37;11.60;99.90
50556;DHT22;36508;52.512;13.450;2022-09-21T07:27:02;11.70;99.90
50556;DHT22;36508;52.512;13.450;2022-09-21T07:29:29;11.70;99.90
50556;DHT22;36508;52.512;13.450;2022-09-21T07:31:54;11.80;99.90
50556;DHT22;36508;52.512;13.450;2022-09-21T07:34:20;11.80;99.90
50556;DHT22;36508;52.512;13.450;2022-09-21T07:36:45;11.80;99.90
50556;DHT22;36508;52.512;13.450;2022-09-21T07:39:11;11.80;99.90
50556;DHT22;36508;52.512;13.450;2022-09-21T07:41:37;11.80;99.90
50556;DHT22;36508;52.512;13.450;2022-09-21T07:44:03;11.90;99.90
50556;DHT22;36508;52.512;13.450;2022-09-21T07:46:29;11.90;99.90
50556;DHT22;36508;52.512;13.450;2022-09-21T07:48:55;11.90;99.90
50556;DHT22;36508;52.512;13.450;2022-09-21T07:51:22;11.90;99.90
50556;DHT22;36508;52.512;13.450;2022-09-21T07:53:53;12.00;99.90
50556;DHT22;36508;52.512;13.450;2022-09-21T07:56:21;12.10;99.90
50556;DHT22;36508;52.512;13.450;2022-09-21T07:58:47;12.20;99.90
50556;DHT22;36508;52.512;13.450;2022-09-21T08:01:34;12.40;99.90
50556;DHT22;36508;52.512;13.450;2022-09-21T08:04:02;12.40;99.90
50556;DHT22;36508;52.512;13.450;2022-09-21T08:06:29;12.60;99.90
50556;DHT22;36508;52.512;13.450;2022-09-21T08:08:56;12.60;99.90
50556;DHT22;36508;52.512;13.450;2022-09-21T08:11:22;12.60;99.90
50556;DHT22;36508;52.512;13.450;2022-09-21T08:13:53;12.60;99.90
50556;DHT22;36508;52.512;13.450;2022-09-21T08:16:19;12.70;99.90
50556;DHT22;36508;52.512;13.450;2022-09-21T08:18:45;12.90;99.90
50556;DHT22;36508;52.512;13.450;2022-09-21T08:21:12;13.00;99.90
50556;DHT22;36508;52.512;13.450;2022-09-21T08:23:37;12.90;99.90
50556;DHT22;36508;52.512;13.450;2022-09-21T08:26:07;13.00;99.90
50556;DHT22;36508;52.512;13.450;2022-09-21T08:28:35;13.10;99.90
50556;DHT22;36508;52.512;13.450;2022-09-21T08:31:02;13.10;99.90
50556;DHT22;36508;52.512;13.450;2022-09-21T08:33:27;13.00;99.90
50556;DHT22;36508;52.512;13.450;2022-09-21T08:35:54;13.10;99.90
50556;DHT22;36508;52.512;13.450;2022-09-21T08:38:20;13.10;99.90
50556;DHT22;36508;52.512;13.450;2022-09-21T08:40:47;13.10;99.90
50556;DHT22;36508;52.512;13.450;2022-09-21T08:43:22;13.20;99.90
50556;DHT22;36508;52.512;13.450;2022-09-21T08:45:52;13.30;99.90
50556;DHT22;36508;52.512;13.450;2022-09-21T08:48:27;13.30;99.90
50556;DHT22;36508;52.512;13.450;2022-09-21T08:50:58;13.40;99.90
50556;DHT22;36508;52.512;13.450;2022-09-21T08:53:33;13.50;99.90
50556;DHT22;36508;52.512;13.450;2022-09-21T08:56:00;13.60;99.90
50556;DHT22;36508;52.512;13.450;2022-09-21T08:58:29;13.70;99.90
50556;DHT22;36508;52.512;13.450;2022-09-21T09:04:10;13.90;99.90
50556;DHT22;36508;52.512;13.450;2022-09-21T09:06:51;14.20;99.90
50556;DHT22;36508;52.512;13.450;2022-09-21T09:12:45;14.30;99.90
50556;DHT22;36508;52.512;13.450;2022-09-21T09:15:30;14.50;99.90
50556;DHT22;36508;52.512;13.450;2022-09-21T09:20:59;14.80;99.90
50556;DHT22;36508;52.512;13.450;2022-09-21T09:23:40;14.70;99.90
50556;DHT22;36508;52.512;13.450;2022-09-21T09:26:18;14.70;99.90
50556;DHT22;36508;52.512;13.450;2022-09-21T09:28:58;15.00;99.90
50556;DHT22;36508;52.512;13.450;2022-09-21T09:31:31;15.00;99.90
50556;DHT22;36508;52.512;13.450;2022-09-21T09:36:33;15.00;99.90
50556;DHT22;36508;52.512;13.450;2022-09-21T09:39:10;14.90;99.90
50556;DHT22;36508;52.512;13.450;2022-09-21T09:45:02;14.80;99.90
50556;DHT22;36508;52.512;13.450;2022-09-21T09:50:27;14.90;99.90
50556;DHT22;36508;52.512;13.450;2022-09-21T09:53:05;14.80;99.90
50556;DHT22;36508;52.512;13.450;2022-09-21T09:55:44;14.90;99.90
50556;DHT22;36508;52.512;13.450;2022-09-21T10:00:48;14.90;99.90
50556;DHT22;36508;52.512;13.450;2022-09-21T10:03:18;14.80;99.90
50556;DHT22;36508;52.512;13.450;2022-09-21T10:05:45;15.00;99.90
50556;DHT22;36508;52.512;13.450;2022-09-21T10:11:01;15.40;99.90
50556;DHT22;36508;52.512;13.450;2022-09-21T10:13:32;15.50;99.90
50556;DHT22;36508;52.512;13.450;2022-09-21T10:18:55;16.00;99.90
50556;DHT22;36508;52.512;13.450;2022-09-21T10:21:25;16.70;99.90
50556;DHT22;36508;52.512;13.450;2022-09-21T10:23:56;19.00;99.90
50556;DHT22;36508;52.512;13.450;2022-09-21T10:26:23;22.10;99.90
50556;DHT22;36508;52.512;13.450;2022-09-21T10:31:23;24.50;99.90
50556;DHT22;36508;52.512;13.450;2022-09-21T10:34:12;25.60;99.90
50556;DHT22;36508;52.512;13.450;2022-09-21T10:51:43;26.20;99.90
50556;DHT22;36508;52.512;13.450;2022-09-21T10:54:10;30.40;99.30
50556;DHT22;36508;52.512;13.450;2022-09-21T10:56:36;29.80;98.90
50556;DHT22;36508;52.512;13.450;2022-09-21T11:01:53;28.30;97.50
50556;DHT22;36508;52.512;13.450;2022-09-21T11:07:24;23.50;99.90
50556;DHT22;36508;52.512;13.450;2022-09-21T11:10:18;23.60;99.90
50556;DHT22;36508;52.512;13.450;2022-09-21T11:15:22;24.80;99.90
50556;DHT22;36508;52.512;13.450;2022-09-21T11:26:37;28.40;93.60
50556;DHT22;36508;52.512;13.450;2022-09-21T11:29:14;28.70;91.70
50556;DHT22;36508;52.512;13.450;2022-09-21T11:46:09;20.70;99.90
50556;DHT22;36508;52.512;13.450;2022-09-21T11:49:04;19.30;99.90
50556;DHT22;36508;52.512;13.450;2022-09-21T11:52:05;18.70;99.90
50556;DHT22;36508;52.512;13.450;2022-09-21T11:57:30;18.00;99.90
50556;DHT22;36508;52.512;13.450;2022-09-21T12:00:07;17.90;99.90
50556;DHT22;36508;52.512;13.450;2022-09-21T12:06:20;19.00;99.90
50556;DHT22;36508;52.512;13.450;2022-09-21T12:11:48;19.00;99.90
50556;DHT22;36508;52.512;13.450;2022-09-21T12:14:32;19.10;99.90
50556;DHT22;36508;52.512;13.450;2022-09-21T12:17:37;18.60;99.90
50556;DHT22;36508;52.512;13.450;2022-09-21T12:20:19;18.10;99.90
50556;DHT22;36508;52.512;13.450;2022-09-21T12:22:51;18.10;99.90
50556;DHT22;36508;52.512;13.450;2022-09-21T12:25:23;17.90;99.90
50556;DHT22;36508;52.512;13.450;2022-09-21T12:28:02;17.70;99.90
50556;DHT22;36508;52.512;13.450;2022-09-21T12:30:32;17.80;99.90
50556;DHT22;36508;52.512;13.450;2022-09-21T12:33:07;18.50;99.90
50556;DHT22;36508;52.512;13.450;2022-09-21T12:35:40;19.30;99.90
50556;DHT22;36508;52.512;13.450;2022-09-21T12:40:54;19.40;99.90
50556;DHT22;36508;52.512;13.450;2022-09-21T12:43:46;19.30;99.90
50556;DHT22;36508;52.512;13.450;2022-09-21T12:46:23;19.20;99.90
50556;DHT22;36508;52.512;13.450;2022-09-21T12:48:50;19.20;99.90
50556;DHT22;36508;52.512;13.450;2022-09-21T12:51:24;18.50;99.90
50556;DHT22;36508;52.512;13.450;2022-09-21T12:53:53;18.10;99.90
50556;DHT22;36508;52.512;13.450;2022-09-21T12:56:34;17.80;99.90
50556;DHT22;36508;52.512;13.450;2022-09-21T12:59:37;17.60;99.90
50556;DHT22;36508;52.512;13.450;2022-09-21T13:02:41;17.70;99.90
50556;DHT22;36508;52.512;13.450;2022-09-21T13:05:28;17.60;99.90
50556;DHT22;36508;52.512;13.450;2022-09-21T13:12:56;17.20;99.90
50556;DHT22;36508;52.512;13.450;2022-09-21T13:15:27;16.90;99.90
50556;DHT22;36508;52.512;13.450;2022-09-21T13:18:02;16.90;99.90
50556;DHT22;36508;52.512;13.450;2022-09-21T13:20:37;17.10;99.90
50556;DHT22;36508;52.512;13.450;2022-09-21T13:23:03;17.40;99.90
50556;DHT22;36508;52.512;13.450;2022-09-21T13:25:31;17.70;99.90
50556;DHT22;36508;52.512;13.450;2022-09-21T13:30:47;18.20;99.90
50556;DHT22;36508;52.512;13.450;2022-09-21T13:38:32;18.00;99.90
50556;DHT22;36508;52.512;13.450;2022-09-21T13:41:26;18.10;99.90
50556;DHT22;36508;52.512;13.450;2022-09-21T13:49:22;18.10;99.90
50556;DHT22;36508;52.512;13.450;2022-09-21T13:52:24;17.90;99.90
50556;DHT22;36508;52.512;13.450;2022-09-21T13:55:04;18.10;99.90
50556;DHT22;36508;52.512;13.450;2022-09-21T13:57:43;18.30;99.90
50556;DHT22;36508;52.512;13.450;2022-09-21T14:02:39;18.60;99.90
50556;DHT22;36508;52.512;13.450;2022-09-21T14:05:33;18.80;99.90
50556;DHT22;36508;52.512;13.450;2022-09-21T14:08:03;19.10;99.90
50556;DHT22;36508;52.512;13.450;2022-09-21T14:10:31;19.20;99.90
50556;DHT22;36508;52.512;13.450;2022-09-21T14:12:59;18.80;99.90
50556;DHT22;36508;52.512;13.450;2022-09-21T14:15:35;19.30;99.90
50556;DHT22;36508;52.512;13.450;2022-09-21T14:20:36;19.10;99.90
50556;DHT22;36508;52.512;13.450;2022-09-21T14:26:00;18.90;99.90
50556;DHT22;36508;52.512;13.450;2022-09-21T14:28:47;19.00;99.90
50556;DHT22;36508;52.512;13.450;2022-09-21T14:31:24;19.10;99.90
50556;DHT22;36508;52.512;13.450;2022-09-21T14:33:53;19.30;99.90
50556;DHT22;36508;52.512;13.450;2022-09-21T14:36:32;19.80;99.90
50556;DHT22;36508;52.512;13.450;2022-09-21T14:39:15;20.50;99.90
50556;DHT22;36508;52.512;13.450;2022-09-21T14:41:43;20.10;99.90
50556;DHT22;36508;52.512;13.450;2022-09-21T14:44:20;20.20;99.90
50556;DHT22;36508;52.512;13.450;2022-09-21T14:46:49;19.80;99.90
50556;DHT22;36508;52.512;13.450;2022-09-21T15:00:50;18.10;99.90
50556;DHT22;36508;52.512;13.450;2022-09-21T15:03:49;18.00;99.90
50556;DHT22;36508;52.512;13.450;2022-09-21T15:06:40;18.00;99.90
50556;DHT22;36508;52.512;13.450;2022-09-21T15:09:47;18.00;99.90
50556;DHT22;36508;52.512;13.450;2022-09-21T15:12:43;18.00;99.90
50556;DHT22;36508;52.512;13.450;2022-09-21T15:15:36;18.00;99.90
50556;DHT22;36508;52.512;13.450;2022-09-21T15:18:20;18.00;99.90
50556;DHT22;36508;52.512;13.450;2022-09-21T15:21:00;18.10;99.90
50556;DHT22;36508;52.512;13.450;2022-09-21T15:23:39;18.30;99.90
50556;DHT22;36508;52.512;13.450;2022-09-21T15:26:17;18.30;99.90
50556;DHT22;36508;52.512;13.450;2022-09-21T15:28:46;18.30;99.90
50556;DHT22;36508;52.512;13.450;2022-09-21T15:31:15;18.10;99.90
50556;DHT22;36508;52.512;13.450;2022-09-21T15:33:43;18.00;99.90
50556;DHT22;36508;52.512;13.450;2022-09-21T15:36:22;18.00;99.90
50556;DHT22;36508;52.512;13.450;2022-09-21T15:38:50;17.90;99.90
50556;DHT22;36508;52.512;13.450;2022-09-21T15:41:39;17.70;99.90
50556;DHT22;36508;52.512;13.450;2022-09-21T15:44:14;17.60;99.90
50556;DHT22;36508;52.512;13.450;2022-09-21T15:46:42;17.50;99.90
50556;DHT22;36508;52.512;13.450;2022-09-21T15:49:16;17.40;99.90
50556;DHT22;36508;52.512;13.450;2022-09-21T15:51:52;17.40;99.90
50556;DHT22;36508;52.512;13.450;2022-09-21T15:56:48;17.20;99.90
50556;DHT22;36508;52.512;13.450;2022-09-21T15:59:20;17.20;99.90
50556;DHT22;36508;52.512;13.450;2022-09-21T16:01:53;17.10;99.90
50556;DHT22;36508;52.512;13.450;2022-09-21T16:04:23;17.00;99.90
50556;DHT22;36508;52.512;13.450;2022-09-21T16:07:02;16.90;99.90
50556;DHT22;36508;52.512;13.450;2022-09-21T16:14:52;16.90;99.90
50556;DHT22;36508;52.512;13.450;2022-09-21T16:17:33;16.80;99.90
50556;DHT22;36508;52.512;13.450;2022-09-21T16:27:49;16.70;99.90
50556;DHT22;36508;52.512;13.450;2022-09-21T16:30:42;16.50;99.90
50556;DHT22;36508;52.512;13.450;2022-09-21T16:38:45;16.20;99.90
50556;DHT22;36508;52.512;13.450;2022-09-21T16:41:25;16.20;99.90
50556;DHT22;36508;52.512;13.450;2022-09-21T16:43:56;16.20;99.90
50556;DHT22;36508;52.512;13.450;2022-09-21T16:46:24;16.10;99.90
50556;DHT22;36508;52.512;13.450;2022-09-21T16:48:52;16.10;99.90
50556;DHT22;36508;52.512;13.450;2022-09-21T16:51:20;16.10;99.90
50556;DHT22;36508;52.512;13.450;2022-09-21T16:53:54;16.00;99.90
50556;DHT22;36508;52.512;13.450;2022-09-21T16:56:20;16.00;99.90
50556;DHT22;36508;52.512;13.450;2022-09-21T16:58:46;16.00;99.90
50556;DHT22;36508;52.512;13.450;2022-09-21T17:01:16;16.00;99.90
50556;DHT22;36508;52.512;13.450;2022-09-21T17:03:45;15.90;99.90
50556;DHT22;36508;52.512;13.450;2022-09-21T17:06:15;15.70;99.90
50556;DHT22;36508;52.512;13.450;2022-09-21T17:08:42;15.70;99.90
50556;DHT22;36508;52.512;13.450;2022-09-21T17:11:08;15.60;99.90
50556;DHT22;36508;52.512;13.450;2022-09-21T17:13:33;15.60;99.90
50556;DHT22;36508;52.512;13.450;2022-09-21T17:15:59;15.60;99.90
50556;DHT22;36508;52.512;13.450;2022-09-21T17:18:24;15.50;99.90
50556;DHT22;36508;52.512;13.450;2022-09-21T17:20:50;15.50;99.90
50556;DHT22;36508;52.512;13.450;2022-09-21T17:23:15;15.50;99.90
50556;DHT22;36508;52.512;13.450;2022-09-21T17:25:41;15.40;99.90
50556;DHT22;36508;52.512;13.450;2022-09-21T17:28:17;15.30;99.90
50556;DHT22;36508;52.512;13.450;2022-09-21T17:30:47;15.30;99.90
50556;DHT22;36508;52.512;13.450;2022-09-21T17:33:13;15.30;99.90
50556;DHT22;36508;52.512;13.450;2022-09-21T17:35:42;15.30;99.90
50556;DHT22;36508;52.512;13.450;2022-09-21T17:38:07;15.10;99.90
50556;DHT22;36508;52.512;13.450;2022-09-21T17:40:34;15.00;99.90
50556;DHT22;36508;52.512;13.450;2022-09-21T17:46:08;15.00;99.90
50556;DHT22;36508;52.512;13.450;2022-09-21T17:48:38;14.90;99.90
50556;DHT22;36508;52.512;13.450;2022-09-21T17:51:04;14.90;99.90
50556;DHT22;36508;52.512;13.450;2022-09-21T17:53:30;14.70;99.90
50556;DHT22;36508;52.512;13.450;2022-09-21T17:59:01;14.50;99.90
50556;DHT22;36508;52.512;13.450;2022-09-21T18:01:35;14.50;99.90
50556;DHT22;36508;52.512;13.450;2022-09-21T18:04:04;14.40;99.90
50556;DHT22;36508;52.512;13.450;2022-09-21T18:06:31;14.40;99.90
50556;DHT22;36508;52.512;13.450;2022-09-21T18:08:57;14.30;99.90
50556;DHT22;36508;52.512;13.450;2022-09-21T18:19:34;14.10;99.90
50556;DHT22;36508;52.512;13.450;2022-09-21T18:22:20;14.00;99.90
50556;DHT22;36508;52.512;13.450;2022-09-21T18:24:49;14.00;99.90
50556;DHT22;36508;52.512;13.450;2022-09-21T18:27:16;13.90;99.90
50556;DHT22;36508;52.512;13.450;2022-09-21T18:29:44;13.80;99.90
50556;DHT22;36508;52.512;13.450;2022-09-21T18:32:21;13.80;99.90
50556;DHT22;36508;52.512;13.450;2022-09-21T18:38:11;13.70;99.90
50556;DHT22;36508;52.512;13.450;2022-09-21T18:41:04;13.60;99.90
50556;DHT22;36508;52.512;13.450;2022-09-21T18:46:21;13.50;99.90
50556;DHT22;36508;52.512;13.450;2022-09-21T18:49:09;13.50;99.90
50556;DHT22;36508;52.512;13.450;2022-09-21T18:51:53;13.40;99.90
50556;DHT22;36508;52.512;13.450;2022-09-21T18:54:22;13.40;99.90
50556;DHT22;36508;52.512;13.450;2022-09-21T18:56:49;13.50;99.90
50556;DHT22;36508;52.512;13.450;2022-09-21T18:59:16;13.50;99.90
50556;DHT22;36508;52.512;13.450;2022-09-21T19:01:42;13.50;99.90
50556;DHT22;36508;52.512;13.450;2022-09-21T19:04:09;13.40;99.90
50556;DHT22;36508;52.512;13.450;2022-09-21T19:06:55;13.40;99.90
50556;DHT22;36508;52.512;13.450;2022-09-21T19:09:54;13.40;99.90
50556;DHT22;36508;52.512;13.450;2022-09-21T19:15:27;13.30;99.90
50556;DHT22;36508;52.512;13.450;2022-09-21T19:24:05;13.30;99.90